sensor_id;sensor_type;location;lat;lon;timestamp;P1;durP1;ratioP1;P2;durP2;ratioP2
13269;SDS011;6703;51.994;7.570;2024-03-08T00:00:30;55.75;;;30.00;;
13269;SDS011;6703;51.994;7.570;2024-03-08T00:02:59;51.08;;;29.17;;
13269;SDS011;6703;51.994;7.570;2024-03-08T00:05:28;48.67;;;27.65;;
13269;SDS011;6703;51.994;7.570;2024-03-08T00:07:58;54.57;;;29.90;;
13269;SDS011;6703;51.994;7.570;2024-03-08T00:10:27;56.88;;;30.10;;
13269;SDS011;6703;51.994;7.570;2024-03-08T00:12:56;49.55;;;28.48;;
13269;SDS011;6703;51.994;7.570;2024-03-08T00:15:24;48.65;;;28.77;;
13269;SDS011;6703;51.994;7.570;2024-03-08T00:17:52;52.63;;;29.10;;
13269;SDS011;6703;51.994;7.570;2024-03-08T00:20:20;52.17;;;28.90;;
13269;SDS011;6703;51.994;7.570;2024-03-08T00:22:49;54.70;;;29.02;;
13269;SDS011;6703;51.994;7.570;2024-03-08T00:25:18;52.05;;;30.27;;
13269;SDS011;6703;51.994;7.570;2024-03-08T00:27:47;53.63;;;30.92;;
13269;SDS011;6703;51.994;7.570;2024-03-08T00:30:16;59.90;;;30.77;;
13269;SDS011;6703;51.994;7.570;2024-03-08T00:32:44;51.28;;;30.08;;
13269;SDS011;6703;51.994;7.570;2024-03-08T00:35:12;55.10;;;31.35;;
13269;SDS011;6703;51.994;7.570;2024-03-08T00:37:40;55.35;;;31.25;;
13269;SDS011;6703;51.994;7.570;2024-03-08T00:40:09;52.35;;;31.23;;
13269;SDS011;6703;51.994;7.570;2024-03-08T00:42:39;53.75;;;30.30;;
13269;SDS011;6703;51.994;7.570;2024-03-08T00:45:08;54.60;;;31.58;;
13269;SDS011;6703;51.994;7.570;2024-03-08T00:47:37;52.35;;;30.50;;
13269;SDS011;6703;51.994;7.570;2024-03-08T00:50:06;56.80;;;32.28;;
13269;SDS011;6703;51.994;7.570;2024-03-08T00:52:35;54.08;;;29.50;;
13269;SDS011;6703;51.994;7.570;2024-03-08T00:55:03;53.95;;;31.50;;
13269;SDS011;6703;51.994;7.570;2024-03-08T00:57:31;55.45;;;31.60;;
13269;SDS011;6703;51.994;7.570;2024-03-08T01:00:02;54.92;;;32.35;;
13269;SDS011;6703;51.994;7.570;2024-03-08T01:02:31;54.72;;;32.42;;
13269;SDS011;6703;51.994;7.570;2024-03-08T01:04:59;53.40;;;31.55;;
13269;SDS011;6703;51.994;7.570;2024-03-08T01:07:27;54.40;;;31.10;;
13269;SDS011;6703;51.994;7.570;2024-03-08T01:09:55;57.58;;;32.85;;
13269;SDS011;6703;51.994;7.570;2024-03-08T01:12:23;56.70;;;32.42;;
13269;SDS011;6703;51.994;7.570;2024-03-08T01:14:51;60.28;;;32.60;;
13269;SDS011;6703;51.994;7.570;2024-03-08T01:17:21;56.08;;;31.83;;
13269;SDS011;6703;51.994;7.570;2024-03-08T01:19:49;57.50;;;32.72;;
13269;SDS011;6703;51.994;7.570;2024-03-08T01:22:16;54.90;;;32.00;;
13269;SDS011;6703;51.994;7.570;2024-03-08T01:24:44;59.17;;;32.60;;
13269;SDS011;6703;51.994;7.570;2024-03-08T01:27:12;59.63;;;32.88;;
13269;SDS011;6703;51.994;7.570;2024-03-08T01:29:40;61.22;;;33.53;;
13269;SDS011;6703;51.994;7.570;2024-03-08T01:32:08;64.80;;;33.22;;
13269;SDS011;6703;51.994;7.570;2024-03-08T01:34:38;58.47;;;33.22;;
13269;SDS011;6703;51.994;7.570;2024-03-08T01:37:05;60.78;;;33.95;;
13269;SDS011;6703;51.994;7.570;2024-03-08T01:39:34;61.03;;;34.75;;
13269;SDS011;6703;51.994;7.570;2024-03-08T01:42:02;62.20;;;33.77;;
13269;SDS011;6703;51.994;7.570;2024-03-08T01:44:30;60.28;;;32.78;;
13269;SDS011;6703;51.994;7.570;2024-03-08T01:46:58;61.50;;;34.88;;
13269;SDS011;6703;51.994;7.570;2024-03-08T01:49:26;60.53;;;34.10;;
13269;SDS011;6703;51.994;7.570;2024-03-08T01:51:57;58.90;;;34.03;;
13269;SDS011;6703;51.994;7.570;2024-03-08T01:54:25;59.27;;;33.93;;
13269;SDS011;6703;51.994;7.570;2024-03-08T01:56:54;61.20;;;33.58;;
13269;SDS011;6703;51.994;7.570;2024-03-08T01:59:23;58.03;;;34.20;;
13269;SDS011;6703;51.994;7.570;2024-03-08T02:01:52;61.00;;;33.88;;
13269;SDS011;6703;51.994;7.570;2024-03-08T02:04:21;59.67;;;33.85;;
13269;SDS011;6703;51.994;7.570;2024-03-08T02:06:50;59.10;;;34.03;;
13269;SDS011;6703;51.994;7.570;2024-03-08T02:09:20;59.55;;;33.65;;
13269;SDS011;6703;51.994;7.570;2024-03-08T02:11:48;58.53;;;34.60;;
13269;SDS011;6703;51.994;7.570;2024-03-08T02:14:16;63.13;;;34.72;;
13269;SDS011;6703;51.994;7.570;2024-03-08T02:16:45;60.23;;;34.40;;
13269;SDS011;6703;51.994;7.570;2024-03-08T02:19:12;62.90;;;34.47;;
13269;SDS011;6703;51.994;7.570;2024-03-08T02:21:41;59.80;;;35.08;;
13269;SDS011;6703;51.994;7.570;2024-03-08T02:24:10;62.50;;;34.22;;
13269;SDS011;6703;51.994;7.570;2024-03-08T02:26:56;57.40;;;34.15;;
13269;SDS011;6703;51.994;7.570;2024-03-08T02:29:24;62.90;;;34.60;;
13269;SDS011;6703;51.994;7.570;2024-03-08T02:31:52;59.30;;;33.90;;
13269;SDS011;6703;51.994;7.570;2024-03-08T02:34:22;57.93;;;34.47;;
13269;SDS011;6703;51.994;7.570;2024-03-08T02:36:51;61.67;;;34.22;;
13269;SDS011;6703;51.994;7.570;2024-03-08T02:39:19;62.20;;;35.67;;
13269;SDS011;6703;51.994;7.570;2024-03-08T02:41:48;60.67;;;34.90;;
13269;SDS011;6703;51.994;7.570;2024-03-08T02:44:16;67.43;;;36.00;;
13269;SDS011;6703;51.994;7.570;2024-03-08T02:46:44;65.53;;;35.83;;
13269;SDS011;6703;51.994;7.570;2024-03-08T02:49:12;61.80;;;36.33;;
13269;SDS011;6703;51.994;7.570;2024-03-08T02:51:40;62.50;;;35.80;;
13269;SDS011;6703;51.994;7.570;2024-03-08T02:54:13;67.77;;;35.37;;
13269;SDS011;6703;51.994;7.570;2024-03-08T02:56:41;61.55;;;35.50;;
13269;SDS011;6703;51.994;7.570;2024-03-08T02:59:08;62.30;;;35.63;;
13269;SDS011;6703;51.994;7.570;2024-03-08T03:01:36;64.15;;;37.05;;
13269;SDS011;6703;51.994;7.570;2024-03-08T03:04:04;62.15;;;36.75;;
13269;SDS011;6703;51.994;7.570;2024-03-08T03:06:32;64.38;;;37.55;;
13269;SDS011;6703;51.994;7.570;2024-03-08T03:09:00;64.30;;;36.75;;
13269;SDS011;6703;51.994;7.570;2024-03-08T03:11:30;64.75;;;37.10;;
13269;SDS011;6703;51.994;7.570;2024-03-08T03:13:58;63.92;;;37.63;;
13269;SDS011;6703;51.994;7.570;2024-03-08T03:16:26;67.23;;;37.50;;
13269;SDS011;6703;51.994;7.570;2024-03-08T03:18:55;65.97;;;36.80;;
13269;SDS011;6703;51.994;7.570;2024-03-08T03:21:27;63.22;;;37.13;;
13269;SDS011;6703;51.994;7.570;2024-03-08T03:23:57;65.85;;;37.42;;
13269;SDS011;6703;51.994;7.570;2024-03-08T03:26:26;65.70;;;37.53;;
13269;SDS011;6703;51.994;7.570;2024-03-08T03:28:55;65.30;;;37.33;;
13269;SDS011;6703;51.994;7.570;2024-03-08T03:31:23;66.30;;;37.05;;
13269;SDS011;6703;51.994;7.570;2024-03-08T03:33:51;65.60;;;36.87;;
13269;SDS011;6703;51.994;7.570;2024-03-08T03:36:20;64.97;;;37.00;;
13269;SDS011;6703;51.994;7.570;2024-03-08T03:38:47;66.60;;;36.55;;
13269;SDS011;6703;51.994;7.570;2024-03-08T03:41:16;65.18;;;37.97;;
13269;SDS011;6703;51.994;7.570;2024-03-08T03:43:43;64.35;;;39.05;;
13269;SDS011;6703;51.994;7.570;2024-03-08T03:46:13;66.47;;;38.65;;
13269;SDS011;6703;51.994;7.570;2024-03-08T03:48:40;66.63;;;38.78;;
13269;SDS011;6703;51.994;7.570;2024-03-08T03:51:10;69.68;;;39.55;;
13269;SDS011;6703;51.994;7.570;2024-03-08T03:53:38;71.55;;;40.05;;
13269;SDS011;6703;51.994;7.570;2024-03-08T03:56:06;68.63;;;39.78;;
13269;SDS011;6703;51.994;7.570;2024-03-08T03:58:33;66.07;;;40.00;;
13269;SDS011;6703;51.994;7.570;2024-03-08T04:01:01;72.05;;;39.88;;
13269;SDS011;6703;51.994;7.570;2024-03-08T04:03:33;66.43;;;38.00;;
13269;SDS011;6703;51.994;7.570;2024-03-08T04:06:01;70.95;;;40.30;;
13269;SDS011;6703;51.994;7.570;2024-03-08T04:08:30;68.97;;;39.38;;
13269;SDS011;6703;51.994;7.570;2024-03-08T04:11:00;71.43;;;40.33;;
13269;SDS011;6703;51.994;7.570;2024-03-08T04:13:29;70.15;;;40.55;;
13269;SDS011;6703;51.994;7.570;2024-03-08T04:16:00;71.35;;;39.30;;
13269;SDS011;6703;51.994;7.570;2024-03-08T04:18:28;70.22;;;40.65;;
13269;SDS011;6703;51.994;7.570;2024-03-08T04:20:58;72.13;;;41.17;;
13269;SDS011;6703;51.994;7.570;2024-03-08T04:23:26;74.63;;;40.53;;
13269;SDS011;6703;51.994;7.570;2024-03-08T04:25:55;68.38;;;38.90;;
13269;SDS011;6703;51.994;7.570;2024-03-08T04:28:22;74.90;;;41.83;;
13269;SDS011;6703;51.994;7.570;2024-03-08T04:30:51;69.15;;;39.97;;
13269;SDS011;6703;51.994;7.570;2024-03-08T04:33:20;71.35;;;40.63;;
13269;SDS011;6703;51.994;7.570;2024-03-08T04:35:48;77.55;;;41.80;;
13269;SDS011;6703;51.994;7.570;2024-03-08T04:38:18;73.05;;;42.13;;
13269;SDS011;6703;51.994;7.570;2024-03-08T04:40:52;70.22;;;40.05;;
13269;SDS011;6703;51.994;7.570;2024-03-08T04:43:20;74.60;;;40.77;;
13269;SDS011;6703;51.994;7.570;2024-03-08T04:45:47;72.55;;;41.58;;
13269;SDS011;6703;51.994;7.570;2024-03-08T04:48:15;76.60;;;41.83;;
13269;SDS011;6703;51.994;7.570;2024-03-08T04:50:44;70.25;;;41.63;;
13269;SDS011;6703;51.994;7.570;2024-03-08T04:53:12;75.63;;;42.55;;
13269;SDS011;6703;51.994;7.570;2024-03-08T04:55:42;77.82;;;42.90;;
13269;SDS011;6703;51.994;7.570;2024-03-08T04:58:10;76.30;;;42.60;;
13269;SDS011;6703;51.994;7.570;2024-03-08T05:00:39;77.05;;;41.25;;
13269;SDS011;6703;51.994;7.570;2024-03-08T05:03:06;72.78;;;41.63;;
13269;SDS011;6703;51.994;7.570;2024-03-08T05:05:35;77.20;;;43.20;;
13269;SDS011;6703;51.994;7.570;2024-03-08T05:08:03;75.05;;;42.22;;
13269;SDS011;6703;51.994;7.570;2024-03-08T05:10:32;75.38;;;43.00;;
13269;SDS011;6703;51.994;7.570;2024-03-08T05:13:01;80.53;;;42.85;;
13269;SDS011;6703;51.994;7.570;2024-03-08T05:15:29;74.38;;;41.97;;
13269;SDS011;6703;51.994;7.570;2024-03-08T05:18:01;78.82;;;41.95;;
13269;SDS011;6703;51.994;7.570;2024-03-08T05:20:29;77.47;;;42.53;;
13269;SDS011;6703;51.994;7.570;2024-03-08T05:22:57;72.80;;;41.83;;
13269;SDS011;6703;51.994;7.570;2024-03-08T05:25:27;81.07;;;44.45;;
13269;SDS011;6703;51.994;7.570;2024-03-08T05:27:54;87.38;;;45.47;;
13269;SDS011;6703;51.994;7.570;2024-03-08T05:30:23;82.78;;;44.38;;
13269;SDS011;6703;51.994;7.570;2024-03-08T05:32:51;79.45;;;44.33;;
13269;SDS011;6703;51.994;7.570;2024-03-08T05:35:19;82.70;;;45.75;;
13269;SDS011;6703;51.994;7.570;2024-03-08T05:37:48;82.15;;;45.95;;
13269;SDS011;6703;51.994;7.570;2024-03-08T05:40:15;80.55;;;45.30;;
13269;SDS011;6703;51.994;7.570;2024-03-08T05:42:47;88.78;;;44.53;;
13269;SDS011;6703;51.994;7.570;2024-03-08T05:45:15;79.55;;;44.30;;
13269;SDS011;6703;51.994;7.570;2024-03-08T05:47:45;85.47;;;44.47;;
13269;SDS011;6703;51.994;7.570;2024-03-08T05:50:14;80.68;;;43.47;;
13269;SDS011;6703;51.994;7.570;2024-03-08T05:52:42;84.78;;;44.65;;
13269;SDS011;6703;51.994;7.570;2024-03-08T05:55:10;82.07;;;44.67;;
13269;SDS011;6703;51.994;7.570;2024-03-08T05:57:40;84.63;;;44.75;;
13269;SDS011;6703;51.994;7.570;2024-03-08T06:00:09;76.57;;;42.37;;
13269;SDS011;6703;51.994;7.570;2024-03-08T06:02:38;78.80;;;43.63;;
13269;SDS011;6703;51.994;7.570;2024-03-08T06:05:10;82.20;;;43.85;;
13269;SDS011;6703;51.994;7.570;2024-03-08T06:07:38;81.32;;;43.20;;
13269;SDS011;6703;51.994;7.570;2024-03-08T06:10:08;83.05;;;43.95;;
13269;SDS011;6703;51.994;7.570;2024-03-08T06:12:56;82.78;;;43.40;;
13269;SDS011;6703;51.994;7.570;2024-03-08T06:15:25;78.57;;;43.47;;
13269;SDS011;6703;51.994;7.570;2024-03-08T06:17:53;79.43;;;43.45;;
13269;SDS011;6703;51.994;7.570;2024-03-08T06:20:22;78.65;;;42.97;;
13269;SDS011;6703;51.994;7.570;2024-03-08T06:22:52;77.53;;;42.40;;
13269;SDS011;6703;51.994;7.570;2024-03-08T06:25:21;79.93;;;43.10;;
13269;SDS011;6703;51.994;7.570;2024-03-08T06:27:48;81.75;;;42.33;;
13269;SDS011;6703;51.994;7.570;2024-03-08T06:30:17;79.20;;;41.78;;
13269;SDS011;6703;51.994;7.570;2024-03-08T06:32:46;79.13;;;42.15;;
13269;SDS011;6703;51.994;7.570;2024-03-08T06:35:15;73.10;;;40.33;;
13269;SDS011;6703;51.994;7.570;2024-03-08T06:37:44;77.10;;;41.40;;
13269;SDS011;6703;51.994;7.570;2024-03-08T06:40:13;70.57;;;40.03;;
13269;SDS011;6703;51.994;7.570;2024-03-08T06:42:41;75.65;;;41.67;;
13269;SDS011;6703;51.994;7.570;2024-03-08T06:45:10;74.53;;;41.35;;
13269;SDS011;6703;51.994;7.570;2024-03-08T06:47:39;73.25;;;40.03;;
13269;SDS011;6703;51.994;7.570;2024-03-08T06:50:08;74.38;;;40.08;;
13269;SDS011;6703;51.994;7.570;2024-03-08T06:52:38;69.47;;;39.23;;
13269;SDS011;6703;51.994;7.570;2024-03-08T06:55:08;77.10;;;41.13;;
13269;SDS011;6703;51.994;7.570;2024-03-08T06:57:39;71.45;;;39.97;;
13269;SDS011;6703;51.994;7.570;2024-03-08T07:00:08;67.93;;;39.27;;
13269;SDS011;6703;51.994;7.570;2024-03-08T07:02:40;73.45;;;40.50;;
13269;SDS011;6703;51.994;7.570;2024-03-08T07:05:08;65.80;;;37.43;;
13269;SDS011;6703;51.994;7.570;2024-03-08T07:07:37;71.78;;;38.28;;
13269;SDS011;6703;51.994;7.570;2024-03-08T07:10:05;68.75;;;37.55;;
13269;SDS011;6703;51.994;7.570;2024-03-08T07:12:38;69.15;;;38.30;;
13269;SDS011;6703;51.994;7.570;2024-03-08T07:15:07;68.85;;;37.60;;
13269;SDS011;6703;51.994;7.570;2024-03-08T07:17:39;69.45;;;38.53;;
13269;SDS011;6703;51.994;7.570;2024-03-08T07:20:08;68.57;;;37.90;;
13269;SDS011;6703;51.994;7.570;2024-03-08T07:22:38;68.40;;;38.40;;
13269;SDS011;6703;51.994;7.570;2024-03-08T07:25:09;66.38;;;37.70;;
13269;SDS011;6703;51.994;7.570;2024-03-08T07:27:49;67.82;;;37.35;;
13269;SDS011;6703;51.994;7.570;2024-03-08T07:30:19;69.68;;;37.72;;
13269;SDS011;6703;51.994;7.570;2024-03-08T07:33:07;65.57;;;35.90;;
13269;SDS011;6703;51.994;7.570;2024-03-08T07:35:39;62.03;;;36.58;;
13269;SDS011;6703;51.994;7.570;2024-03-08T07:38:07;66.88;;;36.65;;
13269;SDS011;6703;51.994;7.570;2024-03-08T07:40:36;67.43;;;36.08;;
13269;SDS011;6703;51.994;7.570;2024-03-08T07:43:06;60.42;;;35.40;;
13269;SDS011;6703;51.994;7.570;2024-03-08T07:45:35;65.03;;;36.75;;
13269;SDS011;6703;51.994;7.570;2024-03-08T07:48:03;64.32;;;36.17;;
13269;SDS011;6703;51.994;7.570;2024-03-08T07:50:37;63.40;;;36.47;;
13269;SDS011;6703;51.994;7.570;2024-03-08T07:53:05;68.28;;;35.88;;
13269;SDS011;6703;51.994;7.570;2024-03-08T07:55:34;60.75;;;35.40;;
13269;SDS011;6703;51.994;7.570;2024-03-08T07:58:02;64.28;;;36.50;;
13269;SDS011;6703;51.994;7.570;2024-03-08T08:00:32;59.10;;;35.50;;
13269;SDS011;6703;51.994;7.570;2024-03-08T08:03:00;64.37;;;35.27;;
13269;SDS011;6703;51.994;7.570;2024-03-08T08:05:28;65.47;;;36.88;;
13269;SDS011;6703;51.994;7.570;2024-03-08T08:07:56;62.50;;;35.88;;
13269;SDS011;6703;51.994;7.570;2024-03-08T08:10:24;63.72;;;36.10;;
13269;SDS011;6703;51.994;7.570;2024-03-08T08:12:53;67.35;;;37.25;;
13269;SDS011;6703;51.994;7.570;2024-03-08T08:15:21;63.13;;;35.47;;
13269;SDS011;6703;51.994;7.570;2024-03-08T08:17:50;65.20;;;36.08;;
13269;SDS011;6703;51.994;7.570;2024-03-08T08:20:19;60.50;;;35.77;;
13269;SDS011;6703;51.994;7.570;2024-03-08T08:22:48;61.28;;;35.25;;
13269;SDS011;6703;51.994;7.570;2024-03-08T08:25:16;60.50;;;35.22;;
13269;SDS011;6703;51.994;7.570;2024-03-08T08:27:47;62.28;;;35.00;;
13269;SDS011;6703;51.994;7.570;2024-03-08T08:30:15;61.03;;;35.97;;
13269;SDS011;6703;51.994;7.570;2024-03-08T08:32:43;62.83;;;35.88;;
13269;SDS011;6703;51.994;7.570;2024-03-08T08:35:12;59.10;;;35.63;;
13269;SDS011;6703;51.994;7.570;2024-03-08T08:37:40;60.35;;;35.30;;
13269;SDS011;6703;51.994;7.570;2024-03-08T08:40:08;61.28;;;34.83;;
13269;SDS011;6703;51.994;7.570;2024-03-08T08:42:42;54.97;;;33.00;;
13269;SDS011;6703;51.994;7.570;2024-03-08T08:45:26;56.88;;;33.53;;
13269;SDS011;6703;51.994;7.570;2024-03-08T08:47:55;58.08;;;33.25;;
13269;SDS011;6703;51.994;7.570;2024-03-08T08:50:24;54.50;;;32.37;;
13269;SDS011;6703;51.994;7.570;2024-03-08T08:52:55;60.40;;;34.80;;
13269;SDS011;6703;51.994;7.570;2024-03-08T08:55:23;57.13;;;34.42;;
13269;SDS011;6703;51.994;7.570;2024-03-08T08:57:53;60.08;;;34.97;;
13269;SDS011;6703;51.994;7.570;2024-03-08T09:00:22;58.43;;;33.90;;
13269;SDS011;6703;51.994;7.570;2024-03-08T09:02:54;56.15;;;32.10;;
13269;SDS011;6703;51.994;7.570;2024-03-08T09:05:26;55.35;;;31.83;;
13269;SDS011;6703;51.994;7.570;2024-03-08T09:07:54;57.77;;;32.63;;
13269;SDS011;6703;51.994;7.570;2024-03-08T09:10:22;54.33;;;33.15;;
13269;SDS011;6703;51.994;7.570;2024-03-08T09:12:56;56.57;;;32.80;;
13269;SDS011;6703;51.994;7.570;2024-03-08T09:15:26;56.55;;;33.55;;
13269;SDS011;6703;51.994;7.570;2024-03-08T09:17:55;57.33;;;33.50;;
13269;SDS011;6703;51.994;7.570;2024-03-08T09:20:25;59.08;;;33.85;;
13269;SDS011;6703;51.994;7.570;2024-03-08T09:22:53;55.85;;;32.35;;
13269;SDS011;6703;51.994;7.570;2024-03-08T09:25:21;59.30;;;33.03;;
13269;SDS011;6703;51.994;7.570;2024-03-08T09:27:50;53.53;;;32.47;;
13269;SDS011;6703;51.994;7.570;2024-03-08T09:30:18;53.13;;;32.28;;
13269;SDS011;6703;51.994;7.570;2024-03-08T09:32:47;51.80;;;31.58;;
13269;SDS011;6703;51.994;7.570;2024-03-08T09:35:18;58.47;;;32.50;;
13269;SDS011;6703;51.994;7.570;2024-03-08T09:37:48;57.80;;;33.60;;
13269;SDS011;6703;51.994;7.570;2024-03-08T09:40:18;51.50;;;30.53;;
13269;SDS011;6703;51.994;7.570;2024-03-08T09:45:16;50.58;;;30.35;;
13269;SDS011;6703;51.994;7.570;2024-03-08T09:47:44;51.97;;;29.95;;
13269;SDS011;6703;51.994;7.570;2024-03-08T09:50:13;47.03;;;30.30;;
13269;SDS011;6703;51.994;7.570;2024-03-08T09:52:41;49.55;;;30.45;;
13269;SDS011;6703;51.994;7.570;2024-03-08T09:55:11;49.08;;;30.15;;
13269;SDS011;6703;51.994;7.570;2024-03-08T09:57:39;49.08;;;30.73;;
13269;SDS011;6703;51.994;7.570;2024-03-08T10:00:09;51.70;;;30.25;;
13269;SDS011;6703;51.994;7.570;2024-03-08T10:02:45;50.45;;;30.50;;
13269;SDS011;6703;51.994;7.570;2024-03-08T10:05:13;44.30;;;28.10;;
13269;SDS011;6703;51.994;7.570;2024-03-08T10:07:41;53.53;;;29.60;;
13269;SDS011;6703;51.994;7.570;2024-03-08T10:10:10;46.72;;;28.92;;
13269;SDS011;6703;51.994;7.570;2024-03-08T10:12:38;48.88;;;29.33;;
13269;SDS011;6703;51.994;7.570;2024-03-08T10:15:07;48.95;;;28.08;;
13269;SDS011;6703;51.994;7.570;2024-03-08T10:17:36;46.88;;;28.08;;
13269;SDS011;6703;51.994;7.570;2024-03-08T10:20:09;47.45;;;28.20;;
13269;SDS011;6703;51.994;7.570;2024-03-08T10:22:42;48.03;;;28.95;;
13269;SDS011;6703;51.994;7.570;2024-03-08T10:25:24;45.97;;;28.50;;
13269;SDS011;6703;51.994;7.570;2024-03-08T10:27:55;47.00;;;28.85;;
13269;SDS011;6703;51.994;7.570;2024-03-08T10:30:24;44.50;;;27.70;;
13269;SDS011;6703;51.994;7.570;2024-03-08T10:32:52;49.53;;;27.55;;
13269;SDS011;6703;51.994;7.570;2024-03-08T10:35:20;45.45;;;26.80;;
13269;SDS011;6703;51.994;7.570;2024-03-08T10:37:49;45.33;;;27.08;;
13269;SDS011;6703;51.994;7.570;2024-03-08T10:40:27;49.33;;;28.33;;
13269;SDS011;6703;51.994;7.570;2024-03-08T10:42:56;42.95;;;27.80;;
13269;SDS011;6703;51.994;7.570;2024-03-08T10:45:31;44.10;;;26.52;;
13269;SDS011;6703;51.994;7.570;2024-03-08T10:48:04;42.28;;;25.25;;
13269;SDS011;6703;51.994;7.570;2024-03-08T10:50:37;39.13;;;24.27;;
13269;SDS011;6703;51.994;7.570;2024-03-08T10:53:06;40.30;;;24.30;;
13269;SDS011;6703;51.994;7.570;2024-03-08T10:55:36;40.03;;;24.40;;
13269;SDS011;6703;51.994;7.570;2024-03-08T10:58:05;38.00;;;23.80;;
13269;SDS011;6703;51.994;7.570;2024-03-08T11:00:34;39.60;;;23.53;;
13269;SDS011;6703;51.994;7.570;2024-03-08T11:03:03;32.65;;;21.02;;
13269;SDS011;6703;51.994;7.570;2024-03-08T11:05:32;35.97;;;22.30;;
13269;SDS011;6703;51.994;7.570;2024-03-08T11:08:16;38.22;;;23.45;;
13269;SDS011;6703;51.994;7.570;2024-03-08T11:11:00;37.10;;;23.25;;
13269;SDS011;6703;51.994;7.570;2024-03-08T11:13:32;36.83;;;23.30;;
13269;SDS011;6703;51.994;7.570;2024-03-08T11:16:01;34.65;;;21.98;;
13269;SDS011;6703;51.994;7.570;2024-03-08T11:18:32;35.15;;;21.88;;
13269;SDS011;6703;51.994;7.570;2024-03-08T11:21:02;35.35;;;22.10;;
13269;SDS011;6703;51.994;7.570;2024-03-08T11:23:32;35.37;;;22.03;;
13269;SDS011;6703;51.994;7.570;2024-03-08T11:26:02;36.97;;;22.17;;
13269;SDS011;6703;51.994;7.570;2024-03-08T11:28:34;35.78;;;22.38;;
13269;SDS011;6703;51.994;7.570;2024-03-08T11:33:53;34.60;;;21.52;;
13269;SDS011;6703;51.994;7.570;2024-03-08T11:36:23;33.00;;;21.17;;
13269;SDS011;6703;51.994;7.570;2024-03-08T11:38:51;34.25;;;21.70;;
13269;SDS011;6703;51.994;7.570;2024-03-08T11:41:24;35.67;;;19.92;;
13269;SDS011;6703;51.994;7.570;2024-03-08T11:44:01;32.22;;;19.65;;
13269;SDS011;6703;51.994;7.570;2024-03-08T11:46:32;32.35;;;19.90;;
13269;SDS011;6703;51.994;7.570;2024-03-08T11:49:00;28.77;;;19.27;;
13269;SDS011;6703;51.994;7.570;2024-03-08T11:51:35;28.33;;;18.87;;
13269;SDS011;6703;51.994;7.570;2024-03-08T11:54:04;29.80;;;19.40;;
13269;SDS011;6703;51.994;7.570;2024-03-08T11:56:34;30.10;;;19.52;;
13269;SDS011;6703;51.994;7.570;2024-03-08T11:59:02;31.20;;;19.63;;
13269;SDS011;6703;51.994;7.570;2024-03-08T12:01:31;30.48;;;17.90;;
13269;SDS011;6703;51.994;7.570;2024-03-08T12:03:59;29.75;;;17.83;;
13269;SDS011;6703;51.994;7.570;2024-03-08T12:06:36;28.85;;;18.88;;
13269;SDS011;6703;51.994;7.570;2024-03-08T12:09:09;29.48;;;18.05;;
13269;SDS011;6703;51.994;7.570;2024-03-08T12:11:39;28.75;;;18.48;;
13269;SDS011;6703;51.994;7.570;2024-03-08T12:14:07;29.98;;;18.67;;
13269;SDS011;6703;51.994;7.570;2024-03-08T12:16:36;32.10;;;19.40;;
13269;SDS011;6703;51.994;7.570;2024-03-08T12:19:03;30.52;;;18.83;;
13269;SDS011;6703;51.994;7.570;2024-03-08T12:21:31;30.05;;;18.80;;
13269;SDS011;6703;51.994;7.570;2024-03-08T12:24:04;29.25;;;18.90;;
13269;SDS011;6703;51.994;7.570;2024-03-08T12:26:35;28.53;;;18.00;;
13269;SDS011;6703;51.994;7.570;2024-03-08T12:29:17;27.50;;;18.35;;
13269;SDS011;6703;51.994;7.570;2024-03-08T12:31:50;28.20;;;18.50;;
13269;SDS011;6703;51.994;7.570;2024-03-08T12:34:20;26.67;;;17.33;;
13269;SDS011;6703;51.994;7.570;2024-03-08T12:36:48;28.63;;;17.57;;
13269;SDS011;6703;51.994;7.570;2024-03-08T12:39:18;28.30;;;18.50;;
13269;SDS011;6703;51.994;7.570;2024-03-08T12:41:49;31.17;;;18.40;;
13269;SDS011;6703;51.994;7.570;2024-03-08T12:44:20;29.10;;;18.27;;
13269;SDS011;6703;51.994;7.570;2024-03-08T12:46:48;26.83;;;17.57;;
13269;SDS011;6703;51.994;7.570;2024-03-08T12:49:19;27.48;;;18.75;;
13269;SDS011;6703;51.994;7.570;2024-03-08T12:51:49;28.60;;;18.80;;
13269;SDS011;6703;51.994;7.570;2024-03-08T12:54:19;28.90;;;18.20;;
13269;SDS011;6703;51.994;7.570;2024-03-08T12:56:50;28.00;;;17.70;;
13269;SDS011;6703;51.994;7.570;2024-03-08T12:59:22;27.45;;;17.77;;
13269;SDS011;6703;51.994;7.570;2024-03-08T13:01:51;28.30;;;17.20;;
13269;SDS011;6703;51.994;7.570;2024-03-08T13:04:20;26.17;;;17.58;;
13269;SDS011;6703;51.994;7.570;2024-03-08T13:06:49;27.67;;;18.05;;
13269;SDS011;6703;51.994;7.570;2024-03-08T13:09:20;27.33;;;17.48;;
13269;SDS011;6703;51.994;7.570;2024-03-08T13:11:49;27.25;;;17.15;;
13269;SDS011;6703;51.994;7.570;2024-03-08T13:14:20;27.52;;;17.67;;
13269;SDS011;6703;51.994;7.570;2024-03-08T13:16:50;26.92;;;17.95;;
13269;SDS011;6703;51.994;7.570;2024-03-08T13:19:18;27.42;;;17.88;;
13269;SDS011;6703;51.994;7.570;2024-03-08T13:21:48;26.63;;;17.52;;
13269;SDS011;6703;51.994;7.570;2024-03-08T13:24:16;43.20;;;17.77;;
13269;SDS011;6703;51.994;7.570;2024-03-08T13:26:45;27.95;;;17.33;;
13269;SDS011;6703;51.994;7.570;2024-03-08T13:29:13;30.33;;;17.13;;
13269;SDS011;6703;51.994;7.570;2024-03-08T13:31:42;28.95;;;18.17;;
13269;SDS011;6703;51.994;7.570;2024-03-08T13:34:11;27.13;;;17.75;;
13269;SDS011;6703;51.994;7.570;2024-03-08T13:36:41;30.92;;;18.27;;
13269;SDS011;6703;51.994;7.570;2024-03-08T13:39:22;28.45;;;17.63;;
13269;SDS011;6703;51.994;7.570;2024-03-08T13:41:52;25.95;;;17.13;;
13269;SDS011;6703;51.994;7.570;2024-03-08T13:44:20;29.30;;;17.52;;
13269;SDS011;6703;51.994;7.570;2024-03-08T13:46:48;26.52;;;17.00;;
13269;SDS011;6703;51.994;7.570;2024-03-08T13:49:21;26.55;;;17.10;;
13269;SDS011;6703;51.994;7.570;2024-03-08T13:51:49;22.95;;;15.90;;
13269;SDS011;6703;51.994;7.570;2024-03-08T13:54:18;25.80;;;17.38;;
13269;SDS011;6703;51.994;7.570;2024-03-08T13:56:46;22.88;;;16.98;;
13269;SDS011;6703;51.994;7.570;2024-03-08T13:59:14;24.77;;;17.45;;
13269;SDS011;6703;51.994;7.570;2024-03-08T14:01:42;24.67;;;17.02;;
13269;SDS011;6703;51.994;7.570;2024-03-08T14:04:12;26.20;;;17.48;;
13269;SDS011;6703;51.994;7.570;2024-03-08T14:06:44;25.75;;;16.75;;
13269;SDS011;6703;51.994;7.570;2024-03-08T14:09:12;25.75;;;17.85;;
13269;SDS011;6703;51.994;7.570;2024-03-08T14:11:43;26.42;;;17.67;;
13269;SDS011;6703;51.994;7.570;2024-03-08T14:14:11;22.98;;;16.70;;
13269;SDS011;6703;51.994;7.570;2024-03-08T14:16:39;24.20;;;16.77;;
13269;SDS011;6703;51.994;7.570;2024-03-08T14:19:07;24.95;;;17.05;;
13269;SDS011;6703;51.994;7.570;2024-03-08T14:21:36;25.87;;;17.57;;
13269;SDS011;6703;51.994;7.570;2024-03-08T14:24:09;27.08;;;17.50;;
13269;SDS011;6703;51.994;7.570;2024-03-08T14:26:36;24.73;;;17.40;;
13269;SDS011;6703;51.994;7.570;2024-03-08T14:29:05;24.27;;;16.88;;
13269;SDS011;6703;51.994;7.570;2024-03-08T14:31:33;25.30;;;17.13;;
13269;SDS011;6703;51.994;7.570;2024-03-08T14:34:02;25.88;;;16.67;;
13269;SDS011;6703;51.994;7.570;2024-03-08T14:36:30;25.25;;;16.88;;
13269;SDS011;6703;51.994;7.570;2024-03-08T14:38:58;23.40;;;17.23;;
13269;SDS011;6703;51.994;7.570;2024-03-08T14:41:27;25.15;;;16.70;;
13269;SDS011;6703;51.994;7.570;2024-03-08T14:43:56;23.42;;;16.65;;
13269;SDS011;6703;51.994;7.570;2024-03-08T14:46:24;23.60;;;15.65;;
13269;SDS011;6703;51.994;7.570;2024-03-08T14:48:53;24.08;;;16.90;;
13269;SDS011;6703;51.994;7.570;2024-03-08T14:51:22;24.03;;;16.50;;